sensor_id;sensor_type;location;lat;lon;timestamp;P1;durP1;ratioP1;P2;durP2;ratioP2
51594;SDS011;37677;53.254;6.594;2022-11-13T00:01:58;24.30;;;19.80;;
51594;SDS011;37677;53.254;6.594;2022-11-13T00:04:24;21.55;;;18.92;;
51594;SDS011;37677;53.254;6.594;2022-11-13T00:06:50;23.23;;;20.00;;
51594;SDS011;37677;53.254;6.594;2022-11-13T00:09:15;21.95;;;19.65;;
51594;SDS011;37677;53.254;6.594;2022-11-13T00:11:41;21.30;;;19.08;;
51594;SDS011;37677;53.254;6.594;2022-11-13T00:14:07;25.85;;;19.67;;
51594;SDS011;37677;53.254;6.594;2022-11-13T00:16:33;25.23;;;20.45;;
51594;SDS011;37677;53.254;6.594;2022-11-13T00:18:59;21.40;;;19.15;;
51594;SDS011;37677;53.254;6.594;2022-11-13T00:21:24;21.70;;;19.40;;
51594;SDS011;37677;53.254;6.594;2022-11-13T00:23:54;25.40;;;20.33;;
51594;SDS011;37677;53.254;6.594;2022-11-13T00:26:21;25.92;;;20.65;;
51594;SDS011;37677;53.254;6.594;2022-11-13T00:28:51;23.65;;;19.95;;
51594;SDS011;37677;53.254;6.594;2022-11-13T00:31:18;23.02;;;19.50;;
51594;SDS011;37677;53.254;6.594;2022-11-13T00:33:44;22.75;;;19.58;;
51594;SDS011;37677;53.254;6.594;2022-11-13T00:36:13;23.92;;;20.55;;
51594;SDS011;37677;53.254;6.594;2022-11-13T00:38:40;28.05;;;23.60;;
51594;SDS011;37677;53.254;6.594;2022-11-13T00:41:05;26.83;;;22.20;;
51594;SDS011;37677;53.254;6.594;2022-11-13T00:43:31;26.73;;;22.60;;
51594;SDS011;37677;53.254;6.594;2022-11-13T00:45:57;25.85;;;23.08;;
51594;SDS011;37677;53.254;6.594;2022-11-13T00:48:22;26.17;;;23.38;;
51594;SDS011;37677;53.254;6.594;2022-11-13T00:50:48;26.00;;;23.15;;
51594;SDS011;37677;53.254;6.594;2022-11-13T00:53:14;25.70;;;22.48;;
51594;SDS011;37677;53.254;6.594;2022-11-13T00:55:43;26.83;;;22.65;;
51594;SDS011;37677;53.254;6.594;2022-11-13T00:58:12;26.00;;;22.35;;
51594;SDS011;37677;53.254;6.594;2022-11-13T01:00:39;26.38;;;22.60;;
51594;SDS011;37677;53.254;6.594;2022-11-13T01:03:06;28.88;;;23.63;;
51594;SDS011;37677;53.254;6.594;2022-11-13T01:05:39;27.55;;;22.27;;
51594;SDS011;37677;53.254;6.594;2022-11-13T01:08:07;27.85;;;23.83;;
51594;SDS011;37677;53.254;6.594;2022-11-13T01:10:34;25.55;;;22.38;;
51594;SDS011;37677;53.254;6.594;2022-11-13T01:13:05;26.63;;;22.90;;
51594;SDS011;37677;53.254;6.594;2022-11-13T01:15:30;25.65;;;21.88;;
51594;SDS011;37677;53.254;6.594;2022-11-13T01:17:56;29.23;;;23.13;;
51594;SDS011;37677;53.254;6.594;2022-11-13T01:20:22;24.83;;;22.13;;
51594;SDS011;37677;53.254;6.594;2022-11-13T01:22:48;25.90;;;21.48;;
51594;SDS011;37677;53.254;6.594;2022-11-13T01:25:15;26.23;;;23.35;;
51594;SDS011;37677;53.254;6.594;2022-11-13T01:27:41;25.17;;;21.77;;
51594;SDS011;37677;53.254;6.594;2022-11-13T01:30:07;31.50;;;24.02;;
51594;SDS011;37677;53.254;6.594;2022-11-13T01:32:33;31.80;;;22.52;;
51594;SDS011;37677;53.254;6.594;2022-11-13T01:34:59;25.05;;;21.77;;
51594;SDS011;37677;53.254;6.594;2022-11-13T01:37:24;23.83;;;21.38;;
51594;SDS011;37677;53.254;6.594;2022-11-13T01:39:50;25.42;;;22.60;;
51594;SDS011;37677;53.254;6.594;2022-11-13T01:42:16;25.98;;;21.15;;
51594;SDS011;37677;53.254;6.594;2022-11-13T01:47:18;23.40;;;20.83;;
51594;SDS011;37677;53.254;6.594;2022-11-13T01:49:46;23.48;;;21.00;;
51594;SDS011;37677;53.254;6.594;2022-11-13T01:52:17;25.27;;;20.33;;
51594;SDS011;37677;53.254;6.594;2022-11-13T01:54:49;24.23;;;21.20;;
51594;SDS011;37677;53.254;6.594;2022-11-13T01:57:32;23.92;;;20.80;;
51594;SDS011;37677;53.254;6.594;2022-11-13T01:59:59;24.05;;;20.08;;
51594;SDS011;37677;53.254;6.594;2022-11-13T02:02:29;23.30;;;19.63;;
51594;SDS011;37677;53.254;6.594;2022-11-13T02:04:55;23.15;;;20.05;;
51594;SDS011;37677;53.254;6.594;2022-11-13T02:07:21;24.83;;;19.77;;
51594;SDS011;37677;53.254;6.594;2022-11-13T02:09:54;21.50;;;19.40;;
51594;SDS011;37677;53.254;6.594;2022-11-13T02:12:27;21.58;;;19.08;;
51594;SDS011;37677;53.254;6.594;2022-11-13T02:14:59;25.60;;;19.98;;
51594;SDS011;37677;53.254;6.594;2022-11-13T02:17:32;21.10;;;18.92;;
51594;SDS011;37677;53.254;6.594;2022-11-13T02:20:02;22.60;;;18.85;;
51594;SDS011;37677;53.254;6.594;2022-11-13T02:22:32;26.70;;;19.52;;
51594;SDS011;37677;53.254;6.594;2022-11-13T02:25:21;22.77;;;19.77;;
51594;SDS011;37677;53.254;6.594;2022-11-13T02:27:49;21.50;;;19.30;;
51594;SDS011;37677;53.254;6.594;2022-11-13T02:30:20;22.17;;;19.88;;
51594;SDS011;37677;53.254;6.594;2022-11-13T02:32:47;22.05;;;18.75;;
51594;SDS011;37677;53.254;6.594;2022-11-13T02:35:15;24.70;;;20.50;;
51594;SDS011;37677;53.254;6.594;2022-11-13T02:37:44;22.80;;;19.92;;
51594;SDS011;37677;53.254;6.594;2022-11-13T02:40:10;24.77;;;20.98;;
51594;SDS011;37677;53.254;6.594;2022-11-13T02:42:36;24.95;;;19.73;;
51594;SDS011;37677;53.254;6.594;2022-11-13T02:45:01;25.08;;;20.00;;
51594;SDS011;37677;53.254;6.594;2022-11-13T02:47:28;24.52;;;19.08;;
51594;SDS011;37677;53.254;6.594;2022-11-13T02:49:53;24.60;;;19.55;;
51594;SDS011;37677;53.254;6.594;2022-11-13T02:52:19;22.88;;;19.50;;
51594;SDS011;37677;53.254;6.594;2022-11-13T02:54:45;22.75;;;19.17;;
51594;SDS011;37677;53.254;6.594;2022-11-13T02:57:10;24.98;;;19.80;;
51594;SDS011;37677;53.254;6.594;2022-11-13T02:59:36;22.63;;;19.30;;
51594;SDS011;37677;53.254;6.594;2022-11-13T03:02:02;21.60;;;19.10;;
51594;SDS011;37677;53.254;6.594;2022-11-13T03:04:27;21.10;;;18.85;;
51594;SDS011;37677;53.254;6.594;2022-11-13T03:06:53;23.80;;;19.05;;
51594;SDS011;37677;53.254;6.594;2022-11-13T03:09:18;26.35;;;18.48;;
51594;SDS011;37677;53.254;6.594;2022-11-13T03:11:44;21.35;;;19.25;;
51594;SDS011;37677;53.254;6.594;2022-11-13T03:14:10;22.15;;;18.98;;
51594;SDS011;37677;53.254;6.594;2022-11-13T03:16:35;20.73;;;18.52;;
51594;SDS011;37677;53.254;6.594;2022-11-13T03:19:01;20.92;;;18.70;;
51594;SDS011;37677;53.254;6.594;2022-11-13T03:21:29;21.85;;;19.42;;
51594;SDS011;37677;53.254;6.594;2022-11-13T03:23:55;23.38;;;19.05;;
51594;SDS011;37677;53.254;6.594;2022-11-13T03:26:21;26.80;;;20.38;;
51594;SDS011;37677;53.254;6.594;2022-11-13T03:28:47;22.55;;;19.35;;
51594;SDS011;37677;53.254;6.594;2022-11-13T03:31:14;23.25;;;19.60;;
51594;SDS011;37677;53.254;6.594;2022-11-13T03:33:39;21.35;;;19.13;;
51594;SDS011;37677;53.254;6.594;2022-11-13T03:36:05;24.02;;;20.77;;
51594;SDS011;37677;53.254;6.594;2022-11-13T03:38:31;22.70;;;18.33;;
51594;SDS011;37677;53.254;6.594;2022-11-13T03:40:57;20.45;;;18.33;;
51594;SDS011;37677;53.254;6.594;2022-11-13T03:43:23;21.83;;;17.67;;
51594;SDS011;37677;53.254;6.594;2022-11-13T03:45:49;20.95;;;18.75;;
51594;SDS011;37677;53.254;6.594;2022-11-13T03:48:15;24.95;;;19.33;;
51594;SDS011;37677;53.254;6.594;2022-11-13T03:50:41;21.55;;;19.35;;
51594;SDS011;37677;53.254;6.594;2022-11-13T03:53:12;22.38;;;19.27;;
51594;SDS011;37677;53.254;6.594;2022-11-13T03:55:38;21.60;;;19.08;;
51594;SDS011;37677;53.254;6.594;2022-11-13T03:58:04;22.15;;;18.48;;
51594;SDS011;37677;53.254;6.594;2022-11-13T04:00:30;24.88;;;19.02;;
51594;SDS011;37677;53.254;6.594;2022-11-13T04:02:56;25.98;;;19.30;;
51594;SDS011;37677;53.254;6.594;2022-11-13T04:05:21;24.20;;;20.48;;
51594;SDS011;37677;53.254;6.594;2022-11-13T04:07:47;22.20;;;18.63;;
51594;SDS011;37677;53.254;6.594;2022-11-13T04:10:13;21.40;;;19.10;;
51594;SDS011;37677;53.254;6.594;2022-11-13T04:12:39;21.48;;;19.20;;
51594;SDS011;37677;53.254;6.594;2022-11-13T04:15:05;22.77;;;19.13;;
51594;SDS011;37677;53.254;6.594;2022-11-13T04:17:31;21.30;;;18.85;;
51594;SDS011;37677;53.254;6.594;2022-11-13T04:19:57;20.85;;;18.60;;
51594;SDS011;37677;53.254;6.594;2022-11-13T04:22:23;24.48;;;18.70;;
51594;SDS011;37677;53.254;6.594;2022-11-13T04:24:49;21.27;;;18.98;;
51594;SDS011;37677;53.254;6.594;2022-11-13T04:27:14;21.50;;;19.30;;
51594;SDS011;37677;53.254;6.594;2022-11-13T04:29:40;21.55;;;19.10;;
51594;SDS011;37677;53.254;6.594;2022-11-13T04:32:06;23.10;;;18.15;;
51594;SDS011;37677;53.254;6.594;2022-11-13T04:34:31;23.40;;;18.08;;
51594;SDS011;37677;53.254;6.594;2022-11-13T04:36:57;20.40;;;18.23;;
51594;SDS011;37677;53.254;6.594;2022-11-13T04:39:23;19.83;;;17.83;;
51594;SDS011;37677;53.254;6.594;2022-11-13T04:41:49;23.02;;;19.23;;
51594;SDS011;37677;53.254;6.594;2022-11-13T04:44:33;20.38;;;18.25;;
51594;SDS011;37677;53.254;6.594;2022-11-13T04:46:58;23.40;;;18.58;;
51594;SDS011;37677;53.254;6.594;2022-11-13T04:49:24;26.27;;;18.95;;
51594;SDS011;37677;53.254;6.594;2022-11-13T04:51:50;21.77;;;17.42;;
51594;SDS011;37677;53.254;6.594;2022-11-13T04:54:15;23.55;;;18.58;;
51594;SDS011;37677;53.254;6.594;2022-11-13T04:56:41;20.20;;;18.00;;
51594;SDS011;37677;53.254;6.594;2022-11-13T04:59:07;23.17;;;18.00;;
51594;SDS011;37677;53.254;6.594;2022-11-13T05:01:33;20.15;;;18.00;;
51594;SDS011;37677;53.254;6.594;2022-11-13T05:04:00;21.58;;;17.83;;
51594;SDS011;37677;53.254;6.594;2022-11-13T05:06:26;22.70;;;18.80;;
51594;SDS011;37677;53.254;6.594;2022-11-13T05:08:52;21.63;;;17.73;;
51594;SDS011;37677;53.254;6.594;2022-11-13T05:11:17;18.27;;;16.02;;
51594;SDS011;37677;53.254;6.594;2022-11-13T05:13:43;19.30;;;17.10;;
51594;SDS011;37677;53.254;6.594;2022-11-13T05:16:10;19.10;;;17.02;;
51594;SDS011;37677;53.254;6.594;2022-11-13T05:18:37;22.40;;;17.08;;
51594;SDS011;37677;53.254;6.594;2022-11-13T05:21:05;20.13;;;17.90;;
51594;SDS011;37677;53.254;6.594;2022-11-13T05:23:32;19.73;;;16.38;;
51594;SDS011;37677;53.254;6.594;2022-11-13T05:26:05;18.60;;;16.60;;
51594;SDS011;37677;53.254;6.594;2022-11-13T05:28:33;19.98;;;17.40;;
51594;SDS011;37677;53.254;6.594;2022-11-13T05:31:32;21.95;;;17.23;;
51594;SDS011;37677;53.254;6.594;2022-11-13T05:33:51;24.63;;;16.63;;
51594;SDS011;37677;53.254;6.594;2022-11-13T05:36:17;22.02;;;17.30;;
51594;SDS011;37677;53.254;6.594;2022-11-13T05:38:43;21.02;;;18.00;;
51594;SDS011;37677;53.254;6.594;2022-11-13T05:43:38;19.90;;;16.95;;
51594;SDS011;37677;53.254;6.594;2022-11-13T05:46:05;20.15;;;18.05;;
51594;SDS011;37677;53.254;6.594;2022-11-13T05:48:39;22.52;;;17.70;;
51594;SDS011;37677;53.254;6.594;2022-11-13T05:51:06;19.63;;;16.67;;
51594;SDS011;37677;53.254;6.594;2022-11-13T05:53:33;22.95;;;16.15;;
51594;SDS011;37677;53.254;6.594;2022-11-13T05:56:00;18.88;;;16.40;;
51594;SDS011;37677;53.254;6.594;2022-11-13T05:58:30;17.60;;;15.73;;
51594;SDS011;37677;53.254;6.594;2022-11-13T06:03:31;19.52;;;16.48;;
51594;SDS011;37677;53.254;6.594;2022-11-13T06:05:57;18.65;;;16.42;;
51594;SDS011;37677;53.254;6.594;2022-11-13T06:08:23;20.20;;;16.45;;
51594;SDS011;37677;53.254;6.594;2022-11-13T06:10:49;19.23;;;16.63;;
51594;SDS011;37677;53.254;6.594;2022-11-13T06:13:15;18.40;;;16.40;;
51594;SDS011;37677;53.254;6.594;2022-11-13T06:15:40;20.00;;;16.67;;
51594;SDS011;37677;53.254;6.594;2022-11-13T06:18:06;18.88;;;16.55;;
51594;SDS011;37677;53.254;6.594;2022-11-13T06:20:35;18.48;;;16.48;;
51594;SDS011;37677;53.254;6.594;2022-11-13T06:23:01;20.75;;;15.98;;
51594;SDS011;37677;53.254;6.594;2022-11-13T06:25:27;20.77;;;16.45;;
51594;SDS011;37677;53.254;6.594;2022-11-13T06:27:53;21.25;;;16.67;;
51594;SDS011;37677;53.254;6.594;2022-11-13T06:30:18;20.63;;;16.67;;
51594;SDS011;37677;53.254;6.594;2022-11-13T06:32:50;19.30;;;16.70;;
51594;SDS011;37677;53.254;6.594;2022-11-13T06:35:16;20.77;;;16.48;;
51594;SDS011;37677;53.254;6.594;2022-11-13T06:37:42;21.05;;;16.80;;
51594;SDS011;37677;53.254;6.594;2022-11-13T06:40:11;18.80;;;16.52;;
51594;SDS011;37677;53.254;6.594;2022-11-13T06:42:37;20.70;;;16.35;;
51594;SDS011;37677;53.254;6.594;2022-11-13T06:45:03;17.75;;;15.88;;
51594;SDS011;37677;53.254;6.594;2022-11-13T06:47:29;20.35;;;16.38;;
51594;SDS011;37677;53.254;6.594;2022-11-13T06:49:55;20.70;;;16.85;;
51594;SDS011;37677;53.254;6.594;2022-11-13T06:52:20;18.40;;;15.70;;
51594;SDS011;37677;53.254;6.594;2022-11-13T06:54:46;19.38;;;16.23;;
51594;SDS011;37677;53.254;6.594;2022-11-13T06:57:11;18.00;;;15.85;;
51594;SDS011;37677;53.254;6.594;2022-11-13T06:59:37;18.50;;;16.38;;
51594;SDS011;37677;53.254;6.594;2022-11-13T07:02:03;18.70;;;16.05;;
51594;SDS011;37677;53.254;6.594;2022-11-13T07:04:29;18.23;;;16.30;;
51594;SDS011;37677;53.254;6.594;2022-11-13T07:06:54;18.90;;;15.55;;
51594;SDS011;37677;53.254;6.594;2022-11-13T07:09:20;18.20;;;16.25;;
51594;SDS011;37677;53.254;6.594;2022-11-13T07:11:46;21.55;;;16.13;;
51594;SDS011;37677;53.254;6.594;2022-11-13T07:14:11;19.13;;;16.13;;
51594;SDS011;37677;53.254;6.594;2022-11-13T07:16:37;20.35;;;16.30;;
51594;SDS011;37677;53.254;6.594;2022-11-13T07:19:03;19.63;;;16.75;;
51594;SDS011;37677;53.254;6.594;2022-11-13T07:21:29;18.85;;;16.08;;
51594;SDS011;37677;53.254;6.594;2022-11-13T07:23:55;19.65;;;16.63;;
51594;SDS011;37677;53.254;6.594;2022-11-13T07:26:21;19.05;;;17.08;;
51594;SDS011;37677;53.254;6.594;2022-11-13T07:28:47;20.77;;;17.13;;
51594;SDS011;37677;53.254;6.594;2022-11-13T07:31:14;19.65;;;17.05;;
51594;SDS011;37677;53.254;6.594;2022-11-13T07:33:40;19.55;;;16.58;;
51594;SDS011;37677;53.254;6.594;2022-11-13T07:36:07;18.92;;;16.58;;
51594;SDS011;37677;53.254;6.594;2022-11-13T07:38:33;19.88;;;16.88;;
51594;SDS011;37677;53.254;6.594;2022-11-13T07:40:59;18.85;;;16.85;;
51594;SDS011;37677;53.254;6.594;2022-11-13T07:43:25;22.75;;;16.98;;
51594;SDS011;37677;53.254;6.594;2022-11-13T07:45:51;18.33;;;16.25;;
51594;SDS011;37677;53.254;6.594;2022-11-13T07:48:19;19.90;;;16.52;;
51594;SDS011;37677;53.254;6.594;2022-11-13T07:50:46;18.63;;;16.25;;
51594;SDS011;37677;53.254;6.594;2022-11-13T07:53:11;18.08;;;16.17;;
51594;SDS011;37677;53.254;6.594;2022-11-13T07:55:37;20.58;;;17.00;;
51594;SDS011;37677;53.254;6.594;2022-11-13T07:58:04;19.25;;;15.50;;
51594;SDS011;37677;53.254;6.594;2022-11-13T08:00:31;20.08;;;16.10;;
51594;SDS011;37677;53.254;6.594;2022-11-13T08:03:03;17.95;;;16.08;;
51594;SDS011;37677;53.254;6.594;2022-11-13T08:05:33;18.63;;;16.00;;
51594;SDS011;37677;53.254;6.594;2022-11-13T08:07:59;19.90;;;16.88;;
51594;SDS011;37677;53.254;6.594;2022-11-13T08:10:25;16.58;;;14.88;;
51594;SDS011;37677;53.254;6.594;2022-11-13T08:12:58;18.70;;;15.88;;
51594;SDS011;37677;53.254;6.594;2022-11-13T08:15:25;18.88;;;15.30;;
51594;SDS011;37677;53.254;6.594;2022-11-13T08:17:55;17.75;;;15.27;;
51594;SDS011;37677;53.254;6.594;2022-11-13T08:20:22;18.23;;;14.98;;
51594;SDS011;37677;53.254;6.594;2022-11-13T08:22:49;18.02;;;15.88;;
51594;SDS011;37677;53.254;6.594;2022-11-13T08:25:15;16.95;;;15.07;;
51594;SDS011;37677;53.254;6.594;2022-11-13T08:27:41;16.42;;;14.73;;
51594;SDS011;37677;53.254;6.594;2022-11-13T08:30:07;18.77;;;15.25;;
51594;SDS011;37677;53.254;6.594;2022-11-13T08:32:33;15.57;;;14.05;;
51594;SDS011;37677;53.254;6.594;2022-11-13T08:34:59;16.65;;;14.35;;
51594;SDS011;37677;53.254;6.594;2022-11-13T08:37:25;16.88;;;14.82;;
51594;SDS011;37677;53.254;6.594;2022-11-13T08:39:50;17.02;;;14.25;;
51594;SDS011;37677;53.254;6.594;2022-11-13T08:42:16;15.32;;;13.80;;
51594;SDS011;37677;53.254;6.594;2022-11-13T08:44:42;20.17;;;13.60;;
51594;SDS011;37677;53.254;6.594;2022-11-13T08:47:07;15.95;;;12.55;;
51594;SDS011;37677;53.254;6.594;2022-11-13T08:49:33;13.57;;;12.02;;
51594;SDS011;37677;53.254;6.594;2022-11-13T08:51:59;12.57;;;11.38;;
51594;SDS011;37677;53.254;6.594;2022-11-13T08:54:25;12.55;;;10.25;;
51594;SDS011;37677;53.254;6.594;2022-11-13T08:56:51;11.30;;;10.10;;
51594;SDS011;37677;53.254;6.594;2022-11-13T08:59:17;12.20;;;9.63;;
51594;SDS011;37677;53.254;6.594;2022-11-13T09:01:43;10.80;;;9.70;;
51594;SDS011;37677;53.254;6.594;2022-11-13T09:04:08;10.93;;;9.35;;
51594;SDS011;37677;53.254;6.594;2022-11-13T09:06:34;11.85;;;8.98;;
51594;SDS011;37677;53.254;6.594;2022-11-13T09:09:00;10.15;;;8.48;;
51594;SDS011;37677;53.254;6.594;2022-11-13T09:11:25;9.63;;;8.63;;
51594;SDS011;37677;53.254;6.594;2022-11-13T09:13:52;10.70;;;8.70;;
51594;SDS011;37677;53.254;6.594;2022-11-13T09:16:18;10.38;;;8.80;;
51594;SDS011;37677;53.254;6.594;2022-11-13T09:18:47;9.27;;;7.80;;
51594;SDS011;37677;53.254;6.594;2022-11-13T09:21:13;10.63;;;8.25;;
51594;SDS011;37677;53.254;6.594;2022-11-13T09:23:39;9.77;;;8.10;;
51594;SDS011;37677;53.254;6.594;2022-11-13T09:26:05;8.32;;;7.53;;
51594;SDS011;37677;53.254;6.594;2022-11-13T09:28:30;10.38;;;8.40;;
51594;SDS011;37677;53.254;6.594;2022-11-13T09:30:56;10.95;;;8.18;;
51594;SDS011;37677;53.254;6.594;2022-11-13T09:33:22;9.90;;;8.90;;
51594;SDS011;37677;53.254;6.594;2022-11-13T09:35:47;9.88;;;8.40;;
51594;SDS011;37677;53.254;6.594;2022-11-13T09:38:13;9.00;;;8.10;;
51594;SDS011;37677;53.254;6.594;2022-11-13T09:43:26;10.05;;;8.27;;
51594;SDS011;37677;53.254;6.594;2022-11-13T09:45:59;8.65;;;7.85;;
51594;SDS011;37677;53.254;6.594;2022-11-13T09:48:53;10.25;;;8.15;;
51594;SDS011;37677;53.254;6.594;2022-11-13T09:51:29;8.80;;;7.85;;
51594;SDS011;37677;53.254;6.594;2022-11-13T09:53:58;9.55;;;8.52;;
51594;SDS011;37677;53.254;6.594;2022-11-13T10:07:35;9.15;;;7.72;;
51594;SDS011;37677;53.254;6.594;2022-11-13T10:10:17;9.30;;;7.70;;
51594;SDS011;37677;53.254;6.594;2022-11-13T10:13:02;13.20;;;7.70;;
51594;SDS011;37677;53.254;6.594;2022-11-13T10:15:29;9.45;;;8.13;;
51594;SDS011;37677;53.254;6.594;2022-11-13T10:17:57;8.65;;;7.75;;
51594;SDS011;37677;53.254;6.594;2022-11-13T10:23:11;9.38;;;7.82;;
51594;SDS011;37677;53.254;6.594;2022-11-13T10:25:40;9.38;;;7.82;;
51594;SDS011;37677;53.254;6.594;2022-11-13T10:28:12;7.90;;;7.20;;
51594;SDS011;37677;53.254;6.594;2022-11-13T10:30:43;10.10;;;8.25;;
51594;SDS011;37677;53.254;6.594;2022-11-13T10:33:13;9.13;;;7.30;;
51594;SDS011;37677;53.254;6.594;2022-11-13T10:35:50;9.35;;;7.70;;
51594;SDS011;37677;53.254;6.594;2022-11-13T10:38:24;8.27;;;7.47;;
51594;SDS011;37677;53.254;6.594;2022-11-13T10:41:03;8.82;;;7.63;;
51594;SDS011;37677;53.254;6.594;2022-11-13T10:43:47;12.80;;;7.57;;
51594;SDS011;37677;53.254;6.594;2022-11-13T10:46:33;7.60;;;6.90;;
51594;SDS011;37677;53.254;6.594;2022-11-13T10:49:12;9.40;;;7.53;;
51594;SDS011;37677;53.254;6.594;2022-11-13T10:51:42;8.98;;;7.70;;
51594;SDS011;37677;53.254;6.594;2022-11-13T10:54:19;8.18;;;7.38;;
51594;SDS011;37677;53.254;6.594;2022-11-13T10:57:00;8.13;;;7.32;;
51594;SDS011;37677;53.254;6.594;2022-11-13T10:59:42;8.13;;;6.90;;
51594;SDS011;37677;53.254;6.594;2022-11-13T11:04:45;9.18;;;7.88;;
51594;SDS011;37677;53.254;6.594;2022-11-13T11:07:15;8.75;;;7.15;;
51594;SDS011;37677;53.254;6.594;2022-11-13T11:09:44;9.38;;;7.88;;
51594;SDS011;37677;53.254;6.594;2022-11-13T11:12:12;9.18;;;8.07;;
51594;SDS011;37677;53.254;6.594;2022-11-13T11:22:31;12.85;;;8.00;;
51594;SDS011;37677;53.254;6.594;2022-11-13T11:25:03;10.55;;;8.57;;
51594;SDS011;37677;53.254;6.594;2022-11-13T11:27:49;11.73;;;8.05;;
51594;SDS011;37677;53.254;6.594;2022-11-13T11:30:22;8.93;;;7.70;;
51594;SDS011;37677;53.254;6.594;2022-11-13T11:38:09;10.65;;;8.55;;
51594;SDS011;37677;53.254;6.594;2022-11-13T11:40:41;10.52;;;9.50;;
51594;SDS011;37677;53.254;6.594;2022-11-13T11:45:53;11.63;;;8.88;;
51594;SDS011;37677;53.254;6.594;2022-11-13T11:48:20;10.55;;;9.27;;
51594;SDS011;37677;53.254;6.594;2022-11-13T11:51:05;11.15;;;8.93;;
51594;SDS011;37677;53.254;6.594;2022-11-13T12:04:11;10.25;;;9.20;;
51594;SDS011;37677;53.254;6.594;2022-11-13T12:09:32;11.57;;;8.60;;
51594;SDS011;37677;53.254;6.594;2022-11-13T12:17:12;8.63;;;7.72;;
51594;SDS011;37677;53.254;6.594;2022-11-13T12:20:02;9.75;;;8.75;;
51594;SDS011;37677;53.254;6.594;2022-11-13T12:23:18;9.73;;;8.73;;
51594;SDS011;37677;53.254;6.594;2022-11-13T12:29:27;9.15;;;7.93;;
51594;SDS011;37677;53.254;6.594;2022-11-13T12:37:09;10.25;;;8.98;;
51594;SDS011;37677;53.254;6.594;2022-11-13T12:39:43;8.85;;;8.00;;
51594;SDS011;37677;53.254;6.594;2022-11-13T12:45:11;9.57;;;8.68;;
51594;SDS011;37677;53.254;6.594;2022-11-13T12:48:52;9.73;;;8.73;;
51594;SDS011;37677;53.254;6.594;2022-11-13T12:51:00;10.23;;;8.82;;
51594;SDS011;37677;53.254;6.594;2022-11-13T12:53:29;10.02;;;8.07;;
51594;SDS011;37677;53.254;6.594;2022-11-13T12:56:08;10.82;;;8.63;;
51594;SDS011;37677;53.254;6.594;2022-11-13T12:58:50;8.68;;;7.90;;
51594;SDS011;37677;53.254;6.594;2022-11-13T13:01:17;12.18;;;9.32;;
51594;SDS011;37677;53.254;6.594;2022-11-13T13:12:06;10.18;;;9.13;;
51594;SDS011;37677;53.254;6.594;2022-11-13T13:14:54;10.95;;;9.48;;
51594;SDS011;37677;53.254;6.594;2022-11-13T13:17:34;9.80;;;8.73;;
51594;SDS011;37677;53.254;6.594;2022-11-13T13:20:01;9.88;;;8.63;;
51594;SDS011;37677;53.254;6.594;2022-11-13T13:27:57;10.38;;;9.30;;
51594;SDS011;37677;53.254;6.594;2022-11-13T13:30:23;9.20;;;8.30;;
51594;SDS011;37677;53.254;6.594;2022-11-13T13:38:31;9.88;;;8.73;;
51594;SDS011;37677;53.254;6.594;2022-11-13T13:49:30;10.70;;;9.45;;
51594;SDS011;37677;53.254;6.594;2022-11-13T13:51:57;11.43;;;9.90;;
51594;SDS011;37677;53.254;6.594;2022-11-13T13:54:24;11.38;;;9.00;;
51594;SDS011;37677;53.254;6.594;2022-11-13T13:56:53;11.65;;;9.43;;
51594;SDS011;37677;53.254;6.594;2022-11-13T13:59:29;10.77;;;9.68;;
51594;SDS011;37677;53.254;6.594;2022-11-13T14:01:59;11.20;;;9.38;;
51594;SDS011;37677;53.254;6.594;2022-11-13T14:04:27;10.93;;;9.88;;
51594;SDS011;37677;53.254;6.594;2022-11-13T14:06:57;10.43;;;9.35;;
51594;SDS011;37677;53.254;6.594;2022-11-13T14:09:25;10.23;;;9.20;;
51594;SDS011;37677;53.254;6.594;2022-11-13T14:11:56;10.85;;;9.43;;
51594;SDS011;37677;53.254;6.594;2022-11-13T14:14:22;10.65;;;9.10;;
51594;SDS011;37677;53.254;6.594;2022-11-13T14:16:49;10.43;;;9.20;;
51594;SDS011;37677;53.254;6.594;2022-11-13T14:19:17;15.52;;;9.63;;
51594;SDS011;37677;53.254;6.594;2022-11-13T14:21:43;10.63;;;9.63;;
51594;SDS011;37677;53.254;6.594;2022-11-13T14:24:30;10.55;;;9.45;;
51594;SDS011;37677;53.254;6.594;2022-11-13T14:27:05;13.95;;;10.00;;
51594;SDS011;37677;53.254;6.594;2022-11-13T14:29:39;11.88;;;10.18;;
51594;SDS011;37677;53.254;6.594;2022-11-13T14:34:51;11.35;;;9.52;;
51594;SDS011;37677;53.254;6.594;2022-11-13T14:39:47;12.55;;;10.10;;
51594;SDS011;37677;53.254;6.594;2022-11-13T14:42:36;11.70;;;9.90;;
51594;SDS011;37677;53.254;6.594;2022-11-13T14:45:22;11.27;;;9.80;;
51594;SDS011;37677;53.254;6.594;2022-11-13T14:53:54;16.70;;;10.32;;
51594;SDS011;37677;53.254;6.594;2022-11-13T14:56:29;11.85;;;10.63;;
51594;SDS011;37677;53.254;6.594;2022-11-13T14:59:05;11.60;;;10.50;;
51594;SDS011;37677;53.254;6.594;2022-11-13T15:01:35;10.73;;;9.57;;
51594;SDS011;37677;53.254;6.594;2022-11-13T15:04:01;12.15;;;10.70;;
51594;SDS011;37677;53.254;6.594;2022-11-13T15:06:33;10.52;;;9.52;;
51594;SDS011;37677;53.254;6.594;2022-11-13T15:09:01;11.30;;;9.80;;
51594;SDS011;37677;53.254;6.594;2022-11-13T15:11:27;11.25;;;9.75;;
51594;SDS011;37677;53.254;6.594;2022-11-13T15:13:53;11.95;;;10.02;;
51594;SDS011;37677;53.254;6.594;2022-11-13T15:16:22;11.55;;;10.35;;
51594;SDS011;37677;53.254;6.594;2022-11-13T15:18:58;12.07;;;10.68;;
51594;SDS011;37677;53.254;6.594;2022-11-13T15:21:30;12.43;;;10.23;;
51594;SDS011;37677;53.254;6.594;2022-11-13T15:23:56;17.10;;;10.18;;
51594;SDS011;37677;53.254;6.594;2022-11-13T15:26:22;11.68;;;10.45;;
51594;SDS011;37677;53.254;6.594;2022-11-13T15:28:48;12.05;;;10.38;;
51594;SDS011;37677;53.254;6.594;2022-11-13T15:31:17;12.38;;;10.65;;
51594;SDS011;37677;53.254;6.594;2022-11-13T15:33:50;14.85;;;11.07;;
51594;SDS011;37677;53.254;6.594;2022-11-13T15:36:15;12.75;;;10.73;;
51594;SDS011;37677;53.254;6.594;2022-11-13T15:38:41;11.40;;;10.25;;
51594;SDS011;37677;53.254;6.594;2022-11-13T15:41:13;13.20;;;11.15;;
51594;SDS011;37677;53.254;6.594;2022-11-13T15:43:42;12.35;;;10.80;;
51594;SDS011;37677;53.254;6.594;2022-11-13T15:46:13;12.45;;;11.13;;
51594;SDS011;37677;53.254;6.594;2022-11-13T15:48:41;13.10;;;10.38;;
51594;SDS011;37677;53.254;6.594;2022-11-13T15:53:59;14.50;;;11.43;;
51594;SDS011;37677;53.254;6.594;2022-11-13T15:56:37;13.85;;;11.00;;
51594;SDS011;37677;53.254;6.594;2022-11-13T15:59:03;12.85;;;11.48;;
51594;SDS011;37677;53.254;6.594;2022-11-13T16:01:28;14.20;;;11.38;;
51594;SDS011;37677;53.254;6.594;2022-11-13T16:03:54;16.30;;;11.70;;
51594;SDS011;37677;53.254;6.594;2022-11-13T16:06:22;12.77;;;11.45;;
51594;SDS011;37677;53.254;6.594;2022-11-13T16:08:48;12.15;;;10.88;;
51594;SDS011;37677;53.254;6.594;2022-11-13T16:11:17;13.95;;;12.07;;
51594;SDS011;37677;53.254;6.594;2022-11-13T16:13:44;15.18;;;11.35;;
51594;SDS011;37677;53.254;6.594;2022-11-13T16:16:24;13.48;;;12.07;;
51594;SDS011;37677;53.254;6.594;2022-11-13T16:18:54;12.23;;;10.65;;
51594;SDS011;37677;53.254;6.594;2022-11-13T16:21:19;13.52;;;11.60;;
51594;SDS011;37677;53.254;6.594;2022-11-13T16:23:45;12.52;;;11.23;;
51594;SDS011;37677;53.254;6.594;2022-11-13T16:26:18;14.40;;;12.18;;
51594;SDS011;37677;53.254;6.594;2022-11-13T16:28:46;12.70;;;11.35;;
51594;SDS011;37677;53.254;6.594;2022-11-13T16:31:17;14.82;;;11.75;;